createdAt,value
2024-04-09T00:02:45.329Z,4.23
2024-04-09T00:06:20.739Z,4.15
2024-04-09T00:09:53.476Z,4.28
2024-04-09T00:13:26.690Z,3.92
2024-04-09T00:16:59.384Z,4.40
2024-04-09T00:20:31.709Z,4.03
2024-04-09T00:24:03.697Z,3.88
2024-04-09T00:27:38.134Z,4.03
2024-04-09T00:31:11.191Z,3.88
2024-04-09T00:34:44.293Z,3.75
2024-04-09T00:38:20.823Z,4.03
2024-04-09T00:41:52.987Z,4.85
2024-04-09T00:45:25.673Z,4.32
2024-04-09T00:48:58.805Z,4.13
2024-04-09T00:52:34.804Z,4.27
2024-04-09T00:56:09.206Z,4.22
2024-04-09T00:59:42.816Z,4.68
2024-04-09T01:03:15.497Z,3.93
2024-04-09T01:06:48.950Z,3.47
2024-04-09T01:10:21.345Z,4.50
2024-04-09T01:13:54.529Z,4.43
2024-04-09T01:17:28.787Z,4.03
2024-04-09T01:21:00.911Z,3.92
2024-04-09T01:24:34.172Z,4.07
2024-04-09T01:28:06.193Z,4.43
2024-04-09T01:31:40.125Z,4.57
2024-04-09T01:35:15.473Z,4.25
2024-04-09T01:38:47.867Z,4.10
2024-04-09T01:42:20.254Z,4.55
2024-04-09T01:45:52.641Z,4.32
2024-04-09T01:49:26.402Z,5.13
2024-04-09T01:52:58.717Z,3.88
2024-04-09T01:56:31.403Z,3.95
2024-04-09T02:00:12.862Z,4.15
2024-04-09T02:03:51.402Z,4.27
2024-04-09T02:07:24.277Z,4.00
2024-04-09T02:10:56.160Z,3.80
2024-04-09T02:14:29.512Z,4.20
2024-04-09T02:18:03.104Z,4.38
2024-04-09T02:21:36.840Z,3.95
2024-04-09T02:25:08.892Z,4.07
2024-04-09T02:28:41.229Z,3.58
2024-04-09T02:32:13.517Z,4.35
2024-04-09T02:35:55.719Z,4.65
2024-04-09T02:39:30.198Z,4.43
2024-04-09T02:43:05.044Z,5.38
2024-04-09T02:46:37.421Z,5.35
2024-04-09T02:50:09.819Z,4.80
2024-04-09T02:53:42.079Z,4.40
2024-04-09T02:57:14.721Z,5.95
2024-04-09T03:00:49.418Z,5.13
2024-04-09T03:04:21.934Z,5.75
2024-04-09T03:07:54.382Z,6.13
2024-04-09T03:11:26.363Z,5.20
2024-04-09T03:14:58.806Z,5.50
2024-04-09T03:18:30.737Z,5.38
2024-04-09T03:22:03.048Z,5.65
2024-04-09T03:25:35.464Z,5.97
2024-04-09T03:29:07.369Z,6.00
2024-04-09T03:32:39.806Z,5.18
2024-04-09T03:36:12.017Z,5.50
2024-04-09T03:39:44.433Z,5.57
2024-04-09T03:43:16.344Z,5.05
2024-04-09T03:46:48.606Z,5.07
2024-04-09T03:50:21.065Z,5.07
2024-04-09T03:53:52.963Z,5.28
2024-04-09T03:57:25.336Z,5.32
2024-04-09T04:01:03.693Z,5.40
2024-04-09T04:04:37.787Z,4.70
2024-04-09T04:08:10.177Z,5.00
2024-04-09T04:11:42.408Z,5.23
2024-04-09T04:15:14.899Z,4.90
2024-04-09T04:18:49.999Z,4.78
2024-04-09T04:22:22.550Z,4.63
2024-04-09T04:26:06.289Z,4.90
2024-04-09T04:29:38.170Z,4.60
2024-04-09T04:33:11.013Z,4.90
2024-04-09T04:36:43.054Z,4.63
2024-04-09T04:40:16.571Z,5.20
2024-04-09T04:43:48.525Z,5.10
2024-04-09T04:47:21.048Z,5.27
2024-04-09T04:50:53.497Z,5.95
2024-04-09T04:54:25.684Z,5.65
2024-04-09T04:57:58.238Z,5.32
2024-04-09T05:01:31.093Z,5.50
2024-04-09T05:05:05.350Z,5.68
2024-04-09T05:08:37.301Z,4.90
2024-04-09T05:12:09.985Z,5.07
2024-04-09T05:15:42.002Z,5.15
2024-04-09T05:19:14.454Z,4.78
2024-04-09T05:22:48.609Z,5.23
2024-04-09T05:26:21.135Z,5.35
2024-04-09T05:29:53.606Z,5.00
2024-04-09T05:33:26.005Z,4.95
2024-04-09T05:36:58.414Z,5.67
2024-04-09T05:40:30.345Z,4.90
2024-04-09T05:44:02.691Z,4.70
2024-04-09T05:47:34.690Z,5.27
2024-04-09T05:51:07.056Z,5.05
2024-04-09T05:54:45.171Z,5.05
2024-04-09T05:58:17.152Z,5.17
2024-04-09T06:01:49.672Z,4.15
2024-04-09T06:05:22.038Z,4.03
2024-04-09T06:08:54.486Z,3.60
2024-04-09T06:12:27.106Z,3.73
2024-04-09T06:15:59.015Z,3.80
2024-04-09T06:19:32.037Z,4.63
2024-04-09T06:23:04.722Z,4.30
2024-04-09T06:26:36.992Z,3.90
2024-04-09T06:30:09.738Z,3.83
2024-04-09T06:33:42.181Z,3.57
2024-04-09T06:37:14.717Z,4.07
2024-04-09T06:40:48.788Z,3.88
2024-04-09T06:44:20.810Z,3.47
2024-04-09T06:47:53.281Z,4.00
2024-04-09T06:51:25.247Z,4.00
2024-04-09T06:54:57.602Z,4.30
2024-04-09T06:58:29.514Z,4.07
2024-04-09T07:02:02.987Z,4.13
2024-04-09T07:05:36.076Z,3.67
2024-04-09T07:09:08.577Z,3.47
2024-04-09T07:12:41.000Z,2.90
2024-04-09T07:16:13.871Z,2.85
2024-04-09T07:19:46.708Z,2.85
2024-04-09T07:23:18.860Z,3.70
2024-04-09T07:26:51.179Z,3.08
2024-04-09T07:30:23.085Z,2.55
2024-04-09T07:33:55.939Z,3.17
2024-04-09T07:37:28.433Z,2.70
2024-04-09T07:41:00.708Z,3.08
2024-04-09T07:44:33.054Z,2.70
2024-04-09T07:48:05.657Z,2.35
2024-04-09T07:51:38.198Z,2.50
2024-04-09T07:55:10.300Z,2.50
2024-04-09T07:58:42.713Z,3.07
2024-04-09T08:02:14.844Z,3.15
2024-04-09T08:05:47.492Z,2.45
2024-04-09T08:09:19.684Z,2.23
2024-04-09T08:12:55.638Z,2.25
2024-04-09T08:16:27.645Z,2.22
2024-04-09T08:20:00.577Z,2.33
2024-04-09T08:23:33.066Z,2.37
2024-04-09T08:27:05.768Z,2.35
2024-04-09T08:30:38.883Z,2.67
2024-04-09T08:34:15.163Z,1.90
2024-04-09T08:37:49.159Z,2.75
2024-04-09T08:41:22.187Z,2.10
2024-04-09T08:44:56.981Z,2.30
2024-04-09T08:48:30.908Z,1.90
2024-04-09T08:52:04.952Z,2.38
2024-04-09T08:55:37.444Z,1.70
2024-04-09T08:59:09.697Z,2.37
2024-04-09T09:02:42.023Z,2.95
2024-04-09T09:06:14.054Z,2.47
2024-04-09T09:09:48.055Z,2.10
2024-04-09T09:13:20.485Z,1.67
2024-04-09T09:16:52.871Z,2.10
2024-04-09T09:20:25.298Z,2.33
2024-04-09T09:24:00.960Z,2.20
2024-04-09T09:27:33.539Z,2.75
2024-04-09T09:31:05.576Z,2.40
2024-04-09T09:34:41.426Z,2.00
2024-04-09T09:38:13.751Z,2.55
2024-04-09T09:41:47.389Z,2.40
2024-04-09T09:45:24.125Z,1.90
2024-04-09T09:48:58.734Z,2.43
2024-04-09T09:52:31.477Z,2.10
2024-04-09T09:56:06.390Z,2.17
2024-04-09T09:59:49.892Z,1.83
2024-04-09T10:03:22.755Z,2.45
2024-04-09T10:07:04.965Z,2.15
2024-04-09T10:10:39.499Z,2.90
2024-04-09T10:14:11.436Z,2.58
2024-04-09T10:17:53.061Z,2.95
2024-04-09T10:21:28.149Z,2.30
2024-04-09T10:25:01.869Z,2.30
2024-04-09T10:28:36.766Z,1.80
2024-04-09T10:32:14.727Z,2.00
2024-04-09T10:35:47.684Z,1.97
2024-04-09T10:39:22.009Z,2.33
2024-04-09T10:42:55.673Z,2.80
2024-04-09T10:46:27.856Z,1.98
2024-04-09T10:50:00.326Z,1.67
2024-04-09T10:53:36.394Z,2.28
2024-04-09T10:57:08.752Z,2.13
2024-04-09T11:00:43.689Z,1.73
2024-04-09T11:04:16.339Z,1.90
2024-04-09T11:07:49.324Z,2.30
2024-04-09T11:11:21.870Z,1.90
2024-04-09T11:14:54.383Z,1.77
2024-04-09T11:18:27.226Z,1.90
2024-04-09T11:22:00.077Z,1.55
2024-04-09T11:25:36.916Z,1.90
2024-04-09T11:29:22.925Z,1.77
2024-04-09T11:32:57.040Z,2.05
2024-04-09T11:36:32.620Z,2.40
2024-04-09T11:40:07.633Z,1.63
2024-04-09T11:43:39.590Z,2.28
2024-04-09T11:47:12.290Z,2.00
2024-04-09T11:50:44.289Z,1.93
2024-04-09T11:54:19.179Z,1.77
2024-04-09T11:57:51.495Z,1.80
2024-04-09T12:01:24.178Z,1.50
2024-04-09T12:04:56.398Z,2.47
2024-04-09T12:08:28.834Z,1.90
2024-04-09T12:12:01.188Z,2.00
2024-04-09T12:15:33.129Z,1.50
2024-04-09T12:19:05.512Z,1.77
2024-04-09T12:22:37.861Z,1.80
2024-04-09T12:26:10.424Z,1.80
2024-04-09T12:29:42.642Z,2.08
2024-04-09T12:33:15.544Z,1.92
2024-04-09T12:36:48.012Z,2.05
2024-04-09T12:40:19.908Z,2.10
2024-04-09T12:43:52.212Z,2.08
2024-04-09T12:47:25.900Z,2.00
2024-04-09T12:50:58.424Z,1.70
2024-04-09T12:54:30.446Z,2.17
2024-04-09T12:58:04.099Z,1.88
2024-04-09T13:01:36.092Z,1.90
2024-04-09T13:05:13.187Z,2.40
2024-04-09T13:08:45.251Z,2.30
2024-04-09T13:12:17.662Z,1.95
2024-04-09T13:16:48.115Z,2.27
2024-04-09T13:19:42.656Z,2.60
2024-04-09T13:23:15.924Z,2.08
2024-04-09T13:26:47.951Z,1.90
2024-04-09T13:30:20.310Z,2.50
2024-04-09T13:33:53.091Z,2.20
2024-04-09T13:37:25.472Z,2.73
2024-04-09T13:40:57.425Z,1.77
2024-04-09T13:44:29.828Z,2.50
2024-04-09T13:48:02.608Z,2.03
2024-04-09T13:51:34.906Z,1.77
2024-04-09T13:55:09.706Z,2.13
2024-04-09T13:58:41.771Z,2.22
2024-04-09T14:02:18.348Z,2.93
2024-04-09T14:05:50.626Z,2.75
2024-04-09T14:09:22.927Z,2.55
2024-04-09T14:12:55.053Z,2.20
2024-04-09T14:16:27.866Z,1.88
2024-04-09T14:19:59.773Z,2.65
2024-04-09T14:23:36.068Z,2.08
2024-04-09T14:27:10.069Z,2.20
2024-04-09T14:30:45.344Z,2.33
2024-04-09T14:34:18.229Z,2.15
2024-04-09T14:37:53.449Z,2.30
2024-04-09T14:41:26.338Z,1.90
2024-04-09T14:44:58.274Z,2.05
2024-04-09T14:48:30.707Z,2.17
2024-04-09T14:52:05.079Z,2.33
2024-04-09T14:55:37.014Z,1.20
2024-04-09T14:59:10.297Z,1.50
2024-04-09T15:02:42.416Z,1.50
2024-04-09T15:06:15.614Z,1.50
2024-04-09T15:09:47.815Z,1.90
2024-04-09T15:13:20.942Z,1.93
2024-04-09T15:16:53.660Z,1.42
2024-04-09T15:20:26.192Z,1.25
2024-04-09T15:23:58.513Z,2.40
2024-04-09T15:27:30.471Z,1.70
2024-04-09T15:31:05.703Z,1.73
2024-04-09T15:34:38.180Z,1.70
2024-04-09T15:38:11.832Z,1.67
2024-04-09T15:41:43.865Z,1.42
2024-04-09T15:45:16.191Z,1.92
2024-04-09T15:48:48.205Z,1.70
2024-04-09T15:52:20.775Z,1.58
2024-04-09T15:55:53.623Z,1.77
2024-04-09T15:59:26.020Z,1.77
2024-04-09T16:02:59.001Z,1.67
2024-04-09T16:06:31.970Z,1.80
2024-04-09T16:10:07.416Z,1.80
2024-04-09T16:13:43.376Z,1.67
2024-04-09T16:17:17.191Z,1.30
2024-04-09T16:20:49.236Z,1.23
2024-04-09T16:24:22.212Z,1.60
2024-04-09T16:27:57.701Z,3.97
2024-04-09T16:31:30.038Z,6.57
2024-04-09T16:35:02.480Z,3.25
2024-04-09T16:38:35.192Z,1.37
2024-04-09T16:42:07.711Z,1.37
2024-04-09T16:45:39.646Z,1.60
2024-04-09T16:49:12.001Z,1.75
2024-04-09T16:52:44.658Z,1.60
2024-04-09T16:56:17.611Z,1.85
2024-04-09T16:59:50.761Z,1.70
2024-04-09T17:03:26.066Z,2.17
2024-04-09T17:06:58.588Z,4.60
2024-04-09T17:10:31.066Z,2.53
2024-04-09T17:14:03.469Z,2.17
2024-04-09T17:17:37.621Z,3.23
2024-04-09T17:21:13.177Z,2.00
2024-04-09T17:24:47.064Z,1.40
2024-04-09T17:28:19.346Z,1.40
2024-04-09T17:31:51.350Z,1.70
2024-04-09T17:35:24.017Z,1.30
2024-04-09T17:38:56.722Z,2.20
2024-04-09T17:42:29.001Z,2.07
2024-04-09T17:46:01.419Z,2.07
2024-04-09T17:49:33.720Z,1.85
2024-04-09T17:53:05.760Z,1.67
2024-04-09T17:56:38.131Z,1.90
2024-04-09T18:00:10.702Z,1.63
2024-04-09T18:03:42.672Z,1.65
2024-04-09T18:07:15.089Z,1.70
2024-04-09T18:10:47.300Z,2.07
2024-04-09T18:14:20.163Z,1.67
2024-04-09T18:17:52.866Z,2.00
2024-04-09T18:21:29.858Z,2.30
2024-04-09T18:25:02.172Z,2.38
2024-04-09T18:28:34.118Z,4.45
2024-04-09T18:32:06.922Z,7.40
2024-04-09T18:35:41.599Z,5.73
2024-04-09T18:39:13.892Z,4.93
2024-04-09T18:42:48.692Z,5.35
2024-04-09T18:46:23.470Z,8.17
2024-04-09T18:49:57.953Z,6.28
2024-04-09T18:53:34.349Z,5.95
2024-04-09T18:57:06.287Z,6.47
2024-04-09T19:00:39.911Z,4.30
2024-04-09T19:04:12.235Z,4.15
2024-04-09T19:07:46.832Z,3.55
2024-04-09T19:11:19.378Z,2.43
2024-04-09T19:14:51.391Z,2.23
2024-04-09T19:18:23.804Z,3.38
2024-04-09T19:21:55.755Z,2.75
2024-04-09T19:25:28.124Z,2.80
2024-04-09T19:29:00.715Z,3.70
2024-04-09T19:32:33.358Z,2.80
2024-04-09T19:36:06.003Z,3.15
2024-04-09T19:39:37.992Z,4.17
2024-04-09T19:43:23.263Z,4.13
2024-04-09T19:47:02.321Z,4.15
2024-04-09T19:50:34.909Z,3.55
2024-04-09T19:54:07.287Z,3.60
2024-04-09T19:57:40.555Z,3.03
2024-04-09T20:01:12.882Z,3.05
2024-04-09T20:04:44.999Z,2.80
2024-04-09T20:08:17.576Z,2.60
2024-04-09T20:11:49.692Z,2.40
2024-04-09T20:15:22.408Z,2.63
2024-04-09T20:18:57.186Z,3.00
2024-04-09T20:22:29.748Z,3.80
2024-04-09T20:26:02.687Z,2.80
2024-04-09T20:29:35.136Z,3.23
2024-04-09T20:33:07.261Z,3.92
2024-04-09T20:36:39.677Z,2.83
2024-04-09T20:40:12.020Z,3.83
2024-04-09T20:43:44.371Z,3.47
2024-04-09T20:47:18.034Z,2.90
2024-04-09T20:50:50.991Z,3.35
2024-04-09T20:54:26.045Z,3.33
2024-04-09T20:57:58.346Z,3.47
2024-04-09T21:01:30.257Z,3.10
2024-04-09T21:05:04.833Z,2.80
2024-04-09T21:08:42.579Z,3.22
2024-04-09T21:12:17.020Z,2.45
2024-04-09T21:15:49.524Z,2.78
2024-04-09T21:19:24.143Z,2.97
2024-04-09T21:22:56.458Z,3.25
2024-04-09T21:26:30.119Z,3.10
2024-04-09T21:30:06.637Z,2.40
2024-04-09T21:33:39.241Z,2.90
2024-04-09T21:37:11.612Z,2.42
2024-04-09T21:40:43.479Z,2.55
2024-04-09T21:44:15.856Z,2.70
2024-04-09T21:47:48.047Z,3.03
2024-04-09T21:51:20.475Z,2.63
2024-04-09T21:54:52.849Z,2.60
2024-04-09T21:58:24.823Z,2.53
2024-04-09T22:01:58.468Z,2.63
2024-04-09T22:05:30.556Z,2.77
2024-04-09T22:09:02.865Z,2.50
2024-04-09T22:12:35.157Z,2.78
2024-04-09T22:16:07.071Z,3.22
2024-04-09T22:19:40.756Z,2.90
2024-04-09T22:23:14.930Z,2.97
2024-04-09T22:26:47.368Z,2.90
2024-04-09T22:30:20.057Z,2.93
2024-04-09T22:33:52.059Z,3.53
2024-04-09T22:37:24.360Z,3.00
2024-04-09T22:40:56.219Z,3.10
2024-04-09T22:44:28.613Z,3.03
2024-04-09T22:48:00.757Z,2.80
2024-04-09T22:51:34.161Z,3.30
2024-04-09T22:55:07.486Z,3.73
2024-04-09T22:58:40.312Z,3.35
2024-04-09T23:02:12.934Z,3.28
2024-04-09T23:05:45.062Z,3.43
2024-04-09T23:09:20.754Z,3.58
2024-04-09T23:12:53.377Z,4.03
2024-04-09T23:16:25.641Z,3.53
2024-04-09T23:19:58.092Z,3.90
2024-04-09T23:23:30.213Z,4.35
2024-04-09T23:27:02.575Z,3.92
2024-04-09T23:30:36.157Z,3.97
2024-04-09T23:34:08.596Z,3.50
2024-04-09T23:37:40.970Z,3.50
2024-04-09T23:41:12.909Z,4.05
2024-04-09T23:44:45.700Z,4.07
2024-04-09T23:48:17.969Z,4.40
2024-04-09T23:51:53.615Z,5.32
2024-04-09T23:55:25.978Z,1.40
2024-04-09T23:58:58.352Z,1.38
